Terminal Aerodrome Forecast
Issued by NWS

Current Version | Previous Version | Graphics & Text | Print | Product List | Glossary On
Versions: 1 2 3 4 5 6 7 8 9 10 11 12 13 14 15 16
974
FTUS41 KILN 061720
TAFLUK
TAF
KLUK 061720Z 0618/0718 24005KT P6SM SCT070
     FM062300 00000KT P6SM FEW200
     FM071500 22008KT P6SM SCT120=

USA.gov is the U.S. government's official web portal to all federal, state and local government web resources and services.